Terminal Aerodrome Forecast
Issued by NWS Wilmington, OH

Current Version | Previous Version | Text Only | Print | Product List | Glossary Off
Versions: 1 2 3 4 5 6 7 8 9 10 11 12 13 14 15 16 17

000
FTUS41 KILN 010500 RRA
TAFDAY
TAF
KDAY 010543Z 0106/0206 15005KT 1 1/2SM -SN OVC015
      TEMPO 0109/0113 3/4SM -SN OVC008
     FM011600 23006KT 5SM -SN OVC015
     FM011900 26006KT 1SM -SN OVC012
      TEMPO 0120/0123 1/2SM SN OVC008
     FM020000 28009KT P6SM OVC015=

USA.gov is the U.S. government's official web portal to all federal, state and local government web resources and services.